createdAt,value
2022-09-15T00:00:29.899Z,18.20
2022-09-15T00:03:00.939Z,18.22
2022-09-15T00:05:27.380Z,18.24
2022-09-15T00:07:53.717Z,18.26
2022-09-15T00:10:24.811Z,18.26
2022-09-15T00:12:51.178Z,18.29
2022-09-15T00:15:17.625Z,18.32
2022-09-15T00:17:49.673Z,18.31
2022-09-15T00:20:22.474Z,18.32
2022-09-15T00:22:49.356Z,18.33
2022-09-15T00:25:15.798Z,18.33
2022-09-15T00:27:42.298Z,18.33
2022-09-15T00:30:09.062Z,18.33
2022-09-15T00:32:35.717Z,18.33
2022-09-15T00:35:07.236Z,18.32
2022-09-15T00:37:34.163Z,18.32
2022-09-15T00:40:00.616Z,18.32
2022-09-15T00:42:27.008Z,18.31
2022-09-15T00:44:59.329Z,18.31
2022-09-15T00:47:36.290Z,18.28
2022-09-15T00:50:09.256Z,18.25
2022-09-15T00:52:46.029Z,18.23
2022-09-15T00:55:19.338Z,18.21
2022-09-15T00:57:53.642Z,18.19
2022-09-15T01:00:23.778Z,18.15
2022-09-15T01:02:50.809Z,18.12
2022-09-15T01:05:22.151Z,18.10
2022-09-15T01:07:55.662Z,18.07
2022-09-15T01:10:37.566Z,18.04
2022-09-15T01:13:07.608Z,18.05
2022-09-15T01:15:58.412Z,18.02
2022-09-15T01:18:35.636Z,18.00
2022-09-15T01:21:31.644Z,17.99
2022-09-15T01:24:25.991Z,17.98
2022-09-15T01:26:58.546Z,17.95
2022-09-15T01:29:47.796Z,17.93
2022-09-15T01:32:48.432Z,17.94
2022-09-15T01:35:24.927Z,17.89
2022-09-15T01:37:58.863Z,17.86
2022-09-15T01:40:29.660Z,17.82
2022-09-15T01:42:57.990Z,17.83
2022-09-15T01:45:32.738Z,17.83
2022-09-15T01:48:01.827Z,17.80
2022-09-15T01:50:36.530Z,17.79
2022-09-15T01:53:08.362Z,17.77
2022-09-15T01:55:46.507Z,17.76
2022-09-15T01:58:15.509Z,17.76
2022-09-15T02:00:48.180Z,17.73
2022-09-15T02:03:44.593Z,17.69
2022-09-15T02:06:21.058Z,17.69
2022-09-15T02:08:56.075Z,17.67
2022-09-15T02:11:28.030Z,17.63
2022-09-15T02:13:57.944Z,17.63
2022-09-15T02:16:29.118Z,17.63
2022-09-15T02:19:17.000Z,17.62
2022-09-15T02:22:10.612Z,17.60
2022-09-15T02:24:44.029Z,17.59
2022-09-15T02:27:16.424Z,17.58
2022-09-15T02:29:47.713Z,17.57
2022-09-15T02:32:17.628Z,17.58
2022-09-15T02:34:47.672Z,17.55
2022-09-15T02:37:14.997Z,17.57
2022-09-15T02:39:47.525Z,17.53
2022-09-15T02:42:24.969Z,17.52
2022-09-15T02:44:51.470Z,17.52
2022-09-15T02:47:23.073Z,17.53
2022-09-15T02:49:51.871Z,17.55
2022-09-15T02:52:18.309Z,17.55
2022-09-15T02:54:44.640Z,17.55
2022-09-15T02:57:11.120Z,17.55
2022-09-15T02:59:56.297Z,17.53
2022-09-15T03:02:23.493Z,17.54
2022-09-15T03:04:50.515Z,17.53
2022-09-15T03:07:18.369Z,17.52
2022-09-15T03:09:44.975Z,17.51
2022-09-15T03:12:11.361Z,17.52
2022-09-15T03:14:38.358Z,17.52
2022-09-15T03:17:04.948Z,17.52
2022-09-15T03:19:31.714Z,17.51
2022-09-15T03:21:58.041Z,17.53
2022-09-15T03:24:24.362Z,17.51
2022-09-15T03:26:53.767Z,17.52
2022-09-15T03:29:20.105Z,17.53
2022-09-15T03:31:46.594Z,17.55
2022-09-15T03:34:12.982Z,17.54
2022-09-15T03:36:39.394Z,17.53
2022-09-15T03:39:05.855Z,17.54
2022-09-15T03:41:32.183Z,17.55
2022-09-15T03:43:58.619Z,17.56
2022-09-15T03:46:25.047Z,17.55
2022-09-15T03:48:51.494Z,17.54
2022-09-15T03:51:20.455Z,17.56
2022-09-15T03:53:47.002Z,17.54
2022-09-15T03:56:24.673Z,17.55
2022-09-15T03:58:51.949Z,17.54
2022-09-15T04:01:21.766Z,17.54
2022-09-15T04:03:51.726Z,17.53
2022-09-15T04:06:20.219Z,17.53
2022-09-15T04:08:46.951Z,17.54
2022-09-15T04:11:14.350Z,17.54
2022-09-15T04:13:42.032Z,17.57
2022-09-15T04:16:12.639Z,17.57
2022-09-15T04:18:41.936Z,17.58
2022-09-15T04:21:13.204Z,17.58
2022-09-15T04:23:40.983Z,17.57
2022-09-15T04:26:13.744Z,17.58
2022-09-15T04:28:42.531Z,17.60
2022-09-15T04:31:12.031Z,17.59
2022-09-15T04:33:43.039Z,17.59
2022-09-15T04:36:12.660Z,17.58
2022-09-15T04:38:39.193Z,17.60
2022-09-15T04:41:06.339Z,17.59
2022-09-15T04:43:33.522Z,17.59
2022-09-15T04:45:59.930Z,17.62
2022-09-15T04:48:29.828Z,17.61
2022-09-15T04:51:01.637Z,17.62
2022-09-15T04:53:28.488Z,17.61
2022-09-15T04:56:04.619Z,17.62
2022-09-15T04:58:33.298Z,17.64
2022-09-15T05:01:07.357Z,17.61
2022-09-15T05:03:37.007Z,17.50
2022-09-15T05:06:06.019Z,17.51
2022-09-15T05:08:32.472Z,17.42
2022-09-15T05:11:01.243Z,17.41
2022-09-15T05:13:30.226Z,17.38
2022-09-15T05:15:56.707Z,17.34
2022-09-15T05:18:23.098Z,17.34
2022-09-15T05:20:49.507Z,17.32
2022-09-15T05:23:18.955Z,17.25
2022-09-15T05:25:54.499Z,17.24
2022-09-15T05:28:20.857Z,17.26
2022-09-15T05:30:47.225Z,17.19
2022-09-15T05:33:13.598Z,17.15
2022-09-15T05:35:40.027Z,17.17
2022-09-15T05:38:08.883Z,17.13
2022-09-15T05:40:35.375Z,17.08
2022-09-15T05:43:01.820Z,17.08
2022-09-15T05:45:28.199Z,17.08
2022-09-15T05:47:59.164Z,17.06
2022-09-15T05:50:25.963Z,17.03
2022-09-15T05:52:52.667Z,17.00
2022-09-15T05:55:21.468Z,17.03
2022-09-15T05:57:47.868Z,17.00
2022-09-15T06:00:14.783Z,17.00
2022-09-15T06:02:41.284Z,17.03
2022-09-15T06:05:10.244Z,17.04
2022-09-15T06:07:36.857Z,16.99
2022-09-15T06:10:04.616Z,16.85
2022-09-15T06:12:31.263Z,16.81
2022-09-15T06:14:57.625Z,16.76
2022-09-15T06:17:24.030Z,16.71
2022-09-15T06:19:53.106Z,16.67
2022-09-15T06:22:19.525Z,16.66
2022-09-15T06:24:46.068Z,16.63
2022-09-15T06:27:12.449Z,16.57
2022-09-15T06:29:41.215Z,16.60
2022-09-15T06:32:07.708Z,16.59
2022-09-15T06:34:34.120Z,16.55
2022-09-15T06:37:00.628Z,16.57
2022-09-15T06:39:29.534Z,16.50
2022-09-15T06:42:02.768Z,16.48
2022-09-15T06:44:29.596Z,16.47
2022-09-15T06:47:00.915Z,16.35
2022-09-15T06:49:27.370Z,16.19
2022-09-15T06:51:56.412Z,16.20
2022-09-15T06:54:23.575Z,16.17
2022-09-15T06:56:52.625Z,16.12
2022-09-15T06:59:19.011Z,16.09
2022-09-15T07:01:53.014Z,16.02
2022-09-15T07:04:19.829Z,15.97
2022-09-15T07:06:46.276Z,15.92
2022-09-15T07:09:12.760Z,15.91
2022-09-15T07:11:39.534Z,15.87
2022-09-15T07:14:06.206Z,15.79
2022-09-15T07:16:33.117Z,15.73
2022-09-15T07:19:01.871Z,15.62
2022-09-15T07:21:30.413Z,15.57
2022-09-15T07:23:57.876Z,15.59
2022-09-15T07:26:30.010Z,15.64
2022-09-15T07:29:01.759Z,15.45
2022-09-15T07:31:31.179Z,15.56
2022-09-15T07:33:59.711Z,15.57
2022-09-15T07:36:28.488Z,15.46
2022-09-15T07:38:57.601Z,15.53
2022-09-15T07:41:29.385Z,15.60
2022-09-15T07:44:00.333Z,15.60
2022-09-15T07:46:29.189Z,15.66
2022-09-15T07:48:58.573Z,15.64
2022-09-15T07:51:27.917Z,15.64
2022-09-15T07:53:54.537Z,15.66
2022-09-15T07:56:21.933Z,15.72
2022-09-15T07:58:49.051Z,15.73
2022-09-15T08:01:16.450Z,15.78
2022-09-15T08:03:45.313Z,15.81
2022-09-15T08:06:13.091Z,15.93
2022-09-15T08:08:41.071Z,16.10
2022-09-15T08:11:17.669Z,16.27
2022-09-15T08:13:46.414Z,16.25
2022-09-15T08:16:18.105Z,16.39
2022-09-15T08:18:47.719Z,16.19
2022-09-15T08:21:20.169Z,16.17
2022-09-15T08:23:54.016Z,16.33
2022-09-15T08:26:20.634Z,16.30
2022-09-15T08:28:49.971Z,16.37
2022-09-15T08:31:16.867Z,16.31
2022-09-15T08:33:48.825Z,16.49
2022-09-15T08:36:17.744Z,16.35
2022-09-15T08:38:45.365Z,16.42
2022-09-15T08:41:12.064Z,16.33
2022-09-15T08:43:47.130Z,16.26
2022-09-15T08:46:20.593Z,16.30
2022-09-15T08:49:02.067Z,16.29
2022-09-15T08:51:45.354Z,16.21
2022-09-15T08:54:21.281Z,16.21
2022-09-15T08:56:48.586Z,16.30
2022-09-15T08:59:17.925Z,16.33
2022-09-15T09:02:13.833Z,16.35
2022-09-15T09:04:47.498Z,16.43
2022-09-15T09:07:47.307Z,16.52
2022-09-15T09:10:34.064Z,16.52
2022-09-15T09:13:14.748Z,16.44
2022-09-15T09:15:54.329Z,16.41
2022-09-15T09:18:46.940Z,16.44
2022-09-15T09:21:13.221Z,16.44
2022-09-15T09:24:13.174Z,16.45
2022-09-15T09:26:40.263Z,16.49
2022-09-15T09:29:27.922Z,16.39
2022-09-15T09:31:58.564Z,16.46
2022-09-15T09:34:34.382Z,16.41
2022-09-15T09:37:11.749Z,16.54
2022-09-15T09:39:38.161Z,16.43
2022-09-15T09:42:06.266Z,16.55
2022-09-15T09:44:33.468Z,16.58
2022-09-15T09:47:03.789Z,16.52
2022-09-15T09:49:34.621Z,16.65
2022-09-15T09:52:03.600Z,16.64
2022-09-15T09:54:33.056Z,16.67
2022-09-15T09:57:28.001Z,16.68
2022-09-15T09:59:57.302Z,16.65
2022-09-15T10:02:29.256Z,16.60
2022-09-15T10:05:12.724Z,16.59
2022-09-15T10:07:45.858Z,16.59
2022-09-15T10:10:23.930Z,16.52
2022-09-15T10:12:54.737Z,16.52
2022-09-15T10:15:27.336Z,16.46
2022-09-15T10:17:55.744Z,16.38
2022-09-15T10:20:33.813Z,16.50
2022-09-15T10:23:05.567Z,16.39
2022-09-15T10:25:57.672Z,16.52
2022-09-15T10:28:25.771Z,16.53
2022-09-15T10:31:11.397Z,16.55
2022-09-15T10:33:41.759Z,16.50
2022-09-15T10:36:20.385Z,16.60
2022-09-15T10:39:02.871Z,16.62
2022-09-15T10:41:35.295Z,16.66
2022-09-15T10:44:24.203Z,16.75
2022-09-15T10:47:10.938Z,16.84
2022-09-15T10:49:46.280Z,16.86
2022-09-15T10:52:36.254Z,16.84
2022-09-15T10:55:51.621Z,16.82
2022-09-15T10:58:45.626Z,16.67
2022-09-15T11:01:24.454Z,16.79
2022-09-15T11:04:15.633Z,16.79
2022-09-15T11:07:11.396Z,16.90
2022-09-15T11:09:49.205Z,17.09
2022-09-15T11:12:40.356Z,17.21
2022-09-15T11:15:44.604Z,17.15
2022-09-15T11:18:25.853Z,17.22
2022-09-15T11:21:09.413Z,17.19
2022-09-15T11:24:14.278Z,17.49
2022-09-15T11:26:50.129Z,17.40
2022-09-15T11:29:22.328Z,17.90
2022-09-15T11:32:04.228Z,17.84
2022-09-15T11:34:47.003Z,17.79
2022-09-15T11:37:22.725Z,17.64
2022-09-15T11:39:58.632Z,17.76
2022-09-15T11:42:55.977Z,17.68
2022-09-15T11:45:27.325Z,17.59
2022-09-15T11:48:01.433Z,17.74
2022-09-15T11:50:37.977Z,17.86
2022-09-15T11:53:31.986Z,18.01
2022-09-15T11:56:31.984Z,18.08
2022-09-15T11:59:33.736Z,18.38
2022-09-15T12:02:20.370Z,18.38
2022-09-15T12:05:09.236Z,18.52
2022-09-15T12:07:46.064Z,18.60
2022-09-15T12:10:23.165Z,18.50
2022-09-15T12:12:53.836Z,18.30
2022-09-15T12:15:29.982Z,18.30
2022-09-15T12:18:06.724Z,18.12
2022-09-15T12:20:54.593Z,18.10
2022-09-15T12:23:36.374Z,18.29
2022-09-15T12:26:17.249Z,18.17
2022-09-15T12:28:46.603Z,18.25
2022-09-15T12:31:29.982Z,18.23
2022-09-15T12:34:25.756Z,18.33
2022-09-15T12:37:08.943Z,18.43
2022-09-15T12:39:43.375Z,18.61
2022-09-15T12:42:31.474Z,18.82
2022-09-15T12:45:24.472Z,18.99
2022-09-15T12:47:54.635Z,19.11
2022-09-15T12:50:34.099Z,19.38
2022-09-15T12:53:28.773Z,19.66
2022-09-15T12:55:57.317Z,19.83
2022-09-15T12:58:39.967Z,19.80
2022-09-15T13:01:18.999Z,19.63
2022-09-15T13:03:45.780Z,19.39
2022-09-15T13:06:38.034Z,19.10
2022-09-15T13:09:06.544Z,18.82
2022-09-15T13:14:40.013Z,18.64
2022-09-15T13:17:25.343Z,18.49
2022-09-15T13:20:03.551Z,18.32
2022-09-15T13:22:39.631Z,18.22
2022-09-15T13:25:15.591Z,18.22
2022-09-15T13:27:47.835Z,18.25
2022-09-15T13:30:36.514Z,18.40
2022-09-15T13:33:21.456Z,18.46
2022-09-15T13:39:40.271Z,18.73
2022-09-15T13:42:12.536Z,18.74
2022-09-15T13:44:57.636Z,18.66
2022-09-15T13:47:29.616Z,18.68
2022-09-15T13:50:20.617Z,18.72
2022-09-15T13:53:15.029Z,18.82
2022-09-15T13:55:46.478Z,18.78
2022-09-15T14:01:07.609Z,18.74
2022-09-15T14:03:47.784Z,18.68
2022-09-15T14:06:27.067Z,18.64
2022-09-15T14:08:57.052Z,18.45
2022-09-15T14:11:32.112Z,18.38
2022-09-15T14:14:00.895Z,18.24
2022-09-15T14:16:27.880Z,18.30
2022-09-15T14:18:59.933Z,18.25
2022-09-15T14:21:29.678Z,18.19
2022-09-15T14:24:10.404Z,18.19
2022-09-15T14:26:37.095Z,18.13
2022-09-15T14:29:06.300Z,18.04
2022-09-15T14:31:39.041Z,18.05
2022-09-15T14:34:09.643Z,18.11
2022-09-15T14:36:38.245Z,18.22
2022-09-15T14:39:17.826Z,18.30
2022-09-15T14:41:44.641Z,18.31
2022-09-15T14:47:22.125Z,18.49
2022-09-15T14:49:51.598Z,18.56
2022-09-15T14:52:28.296Z,18.63
2022-09-15T14:55:00.429Z,18.54
2022-09-15T14:57:31.772Z,18.49
2022-09-15T15:00:06.131Z,18.56
2022-09-15T15:02:49.672Z,18.35
2022-09-15T15:05:23.078Z,18.28
2022-09-15T15:07:52.536Z,18.22
2022-09-15T15:10:25.802Z,18.17
2022-09-15T15:12:59.972Z,18.21
2022-09-15T15:15:27.242Z,18.16
2022-09-15T15:17:54.680Z,18.13
2022-09-15T15:20:27.525Z,18.14
2022-09-15T15:23:26.577Z,18.15
2022-09-15T15:26:33.121Z,18.16
2022-09-15T15:28:59.827Z,18.15
2022-09-15T15:31:28.523Z,18.21
2022-09-15T15:34:24.361Z,18.45
2022-09-15T15:36:50.777Z,18.40
2022-09-15T15:39:27.027Z,18.34
2022-09-15T15:42:05.552Z,18.50
2022-09-15T15:44:34.331Z,18.47
2022-09-15T15:47:03.053Z,18.41
2022-09-15T15:49:33.136Z,18.41
2022-09-15T15:52:01.689Z,18.40
2022-09-15T15:54:28.649Z,18.44
2022-09-15T15:56:57.705Z,18.37
2022-09-15T15:59:24.119Z,18.36
2022-09-15T16:01:52.995Z,18.30
2022-09-15T16:04:19.545Z,18.39
2022-09-15T16:06:46.271Z,18.30
2022-09-15T16:09:17.177Z,18.33
2022-09-15T16:11:43.572Z,18.21
2022-09-15T16:14:13.911Z,18.29
2022-09-15T16:16:42.796Z,18.21
2022-09-15T16:19:09.642Z,18.28
2022-09-15T16:21:41.679Z,18.21
2022-09-15T16:24:15.174Z,18.08
2022-09-15T16:26:43.072Z,18.11
2022-09-15T16:29:09.567Z,18.05
2022-09-15T16:31:36.390Z,17.94
2022-09-15T16:34:02.815Z,17.90
2022-09-15T16:36:33.162Z,18.02
2022-09-15T16:39:01.837Z,17.91
2022-09-15T16:41:28.241Z,17.85
2022-09-15T16:43:55.966Z,17.88
2022-09-15T16:46:22.425Z,17.84
2022-09-15T16:48:48.897Z,17.84
2022-09-15T16:51:27.359Z,17.84
2022-09-15T16:53:56.187Z,17.77
2022-09-15T16:56:22.697Z,17.69
2022-09-15T16:58:49.391Z,17.65
2022-09-15T17:01:20.613Z,17.70
2022-09-15T17:03:47.995Z,17.57
2022-09-15T17:06:16.307Z,17.51
2022-09-15T17:08:46.097Z,17.45
2022-09-15T17:11:19.690Z,17.39
2022-09-15T17:13:49.672Z,17.26
2022-09-15T17:16:21.970Z,17.21
2022-09-15T17:18:49.003Z,17.15
2022-09-15T17:21:17.025Z,17.11
2022-09-15T17:23:49.197Z,17.09
2022-09-15T17:26:20.045Z,17.02
2022-09-15T17:28:46.679Z,16.98
2022-09-15T17:31:19.601Z,16.88
2022-09-15T17:33:46.348Z,16.79
2022-09-15T17:36:13.368Z,16.69
2022-09-15T17:38:41.010Z,16.65
2022-09-15T17:41:14.148Z,16.56
2022-09-15T17:43:44.708Z,16.59
2022-09-15T17:46:11.733Z,16.49
2022-09-15T17:48:39.234Z,16.43
2022-09-15T17:51:14.217Z,16.34
2022-09-15T17:53:40.660Z,16.34
2022-09-15T17:56:07.044Z,16.26
2022-09-15T17:58:33.485Z,16.22
2022-09-15T18:01:05.854Z,16.17
2022-09-15T18:03:34.924Z,16.14
2022-09-15T18:06:07.981Z,16.11
2022-09-15T18:08:35.778Z,16.07
2022-09-15T18:11:03.200Z,15.99
2022-09-15T18:13:30.126Z,15.96
2022-09-15T18:15:57.787Z,15.90
2022-09-15T18:18:27.962Z,15.87
2022-09-15T18:20:56.685Z,15.81
2022-09-15T18:23:24.904Z,15.76
2022-09-15T18:25:51.621Z,15.72
2022-09-15T18:28:18.499Z,15.65
2022-09-15T18:30:47.723Z,15.62
2022-09-15T18:33:22.881Z,15.63
2022-09-15T18:35:52.943Z,15.56
2022-09-15T18:38:20.215Z,15.54
2022-09-15T18:40:53.508Z,15.45
2022-09-15T18:43:20.224Z,15.36
2022-09-15T18:45:49.350Z,15.30
2022-09-15T18:48:16.057Z,15.28
2022-09-15T18:50:45.780Z,15.24
2022-09-15T18:53:14.782Z,15.22
2022-09-15T18:55:42.057Z,15.19
2022-09-15T18:58:11.643Z,15.15
2022-09-15T19:00:40.594Z,15.17
2022-09-15T19:03:09.409Z,15.20
2022-09-15T19:05:40.953Z,15.14
2022-09-15T19:08:09.068Z,15.15
2022-09-15T19:10:35.911Z,15.13
2022-09-15T19:13:02.280Z,15.16
2022-09-15T19:15:31.283Z,15.13
2022-09-15T19:17:57.755Z,15.09
2022-09-15T19:20:26.618Z,15.04
2022-09-15T19:22:53.041Z,14.95
2022-09-15T19:25:19.519Z,14.91
2022-09-15T19:27:49.284Z,14.86
2022-09-15T19:30:15.635Z,14.84
2022-09-15T19:32:42.943Z,14.81
2022-09-15T19:35:14.079Z,14.78
2022-09-15T19:37:42.010Z,14.73
2022-09-15T19:40:11.979Z,14.74
2022-09-15T19:42:39.730Z,14.74
2022-09-15T19:45:07.569Z,14.73
2022-09-15T19:47:36.932Z,14.78
2022-09-15T19:50:05.785Z,14.76
2022-09-15T19:52:34.976Z,14.80
2022-09-15T19:55:04.835Z,14.89
2022-09-15T19:57:33.608Z,14.89
2022-09-15T19:59:59.985Z,14.95
2022-09-15T20:02:26.624Z,15.02
2022-09-15T20:04:53.787Z,15.12
2022-09-15T20:07:20.125Z,15.08
2022-09-15T20:09:54.422Z,15.17
2022-09-15T20:14:55.131Z,15.25
2022-09-15T20:17:21.573Z,15.32
2022-09-15T20:19:48.420Z,15.39
2022-09-15T20:22:14.850Z,15.51
2022-09-15T20:24:41.284Z,15.48
2022-09-15T20:27:08.793Z,15.42
2022-09-15T20:29:35.407Z,15.45
2022-09-15T20:32:04.337Z,15.48
2022-09-15T20:34:30.733Z,15.50
2022-09-15T20:36:57.866Z,15.57
2022-09-15T20:39:27.292Z,15.59
2022-09-15T20:41:54.317Z,15.61
2022-09-15T20:44:20.674Z,15.60
2022-09-15T20:46:49.503Z,15.67
2022-09-15T20:49:15.956Z,15.63
2022-09-15T20:51:45.298Z,15.65
2022-09-15T20:54:11.672Z,15.84
2022-09-15T20:56:38.182Z,15.78
2022-09-15T20:59:05.949Z,15.81
2022-09-15T21:01:36.255Z,15.83
2022-09-15T21:04:03.189Z,15.84
2022-09-15T21:06:31.542Z,15.82
2022-09-15T21:09:00.304Z,15.87
2022-09-15T21:11:27.453Z,15.83
2022-09-15T21:13:57.721Z,15.84
2022-09-15T21:16:27.906Z,15.86
2022-09-15T21:18:55.967Z,15.84
2022-09-15T21:21:29.685Z,15.81
2022-09-15T21:24:03.533Z,15.78
2022-09-15T21:26:32.950Z,15.77
2022-09-15T21:28:59.689Z,15.74
2022-09-15T21:31:33.135Z,15.76
2022-09-15T21:33:59.869Z,15.73
2022-09-15T21:36:29.463Z,15.69
2022-09-15T21:38:57.418Z,15.69
2022-09-15T21:41:26.373Z,15.69
2022-09-15T21:43:55.802Z,15.63
2022-09-15T21:46:25.076Z,15.60
2022-09-15T21:48:51.837Z,15.58
2022-09-15T21:51:24.237Z,15.54
2022-09-15T21:53:53.472Z,15.55
2022-09-15T21:56:20.863Z,15.49
2022-09-15T21:58:49.941Z,15.46
2022-09-15T22:01:22.159Z,15.42
2022-09-15T22:04:02.583Z,15.39
2022-09-15T22:06:32.368Z,15.39
2022-09-15T22:09:00.101Z,15.39
2022-09-15T22:11:29.161Z,15.36
2022-09-15T22:13:55.751Z,15.36
2022-09-15T22:16:24.630Z,15.35
2022-09-15T22:18:57.055Z,15.32
2022-09-15T22:21:26.476Z,15.32
2022-09-15T22:23:57.748Z,15.33
2022-09-15T22:26:29.165Z,15.32
2022-09-15T22:28:56.416Z,15.35
2022-09-15T22:31:23.986Z,15.31
2022-09-15T22:33:51.480Z,15.38
2022-09-15T22:36:30.337Z,15.33
2022-09-15T22:39:05.828Z,15.36
2022-09-15T22:41:39.165Z,15.36
2022-09-15T22:44:16.612Z,15.37
2022-09-15T22:46:43.037Z,15.38
2022-09-15T22:49:09.402Z,15.33
2022-09-15T22:51:35.886Z,15.32
2022-09-15T22:54:05.941Z,15.35
2022-09-15T22:56:32.419Z,15.38
2022-09-15T22:58:58.905Z,15.39
2022-09-15T23:01:27.943Z,15.31
2022-09-15T23:04:04.017Z,15.33
2022-09-15T23:06:37.326Z,15.31
2022-09-15T23:09:09.610Z,15.35
2022-09-15T23:11:39.635Z,15.27
2022-09-15T23:14:17.203Z,15.30
2022-09-15T23:16:44.291Z,15.29
2022-09-15T23:19:13.997Z,15.31
2022-09-15T23:21:40.469Z,15.29
2022-09-15T23:24:08.624Z,15.26
2022-09-15T23:26:35.018Z,15.24
2022-09-15T23:29:01.356Z,15.22
2022-09-15T23:31:30.240Z,15.18
2022-09-15T23:33:59.288Z,15.14
2022-09-15T23:36:25.642Z,15.12
2022-09-15T23:38:52.031Z,15.07
2022-09-15T23:41:23.525Z,15.03
2022-09-15T23:43:50.224Z,15.01
2022-09-15T23:46:16.964Z,15.01
2022-09-15T23:48:46.264Z,15.00
2022-09-15T23:51:12.699Z,14.97
2022-09-15T23:53:39.409Z,14.97
2022-09-15T23:56:08.454Z,14.95
2022-09-15T23:58:34.862Z,14.99
